Avent, Mississippi
Current Conditions -  °F | °C
As of 4:53 PM on Tuesday 21 Oct 2014 (Local Time) from KHBG Reporting Station
Clear Clear  
Wind Chill: 79°   Ceiling: Unl
Heat Index: 79°   Visibility: 10mi
Dew Point: 54°   Wind: 8mph
Humidity: 42%   Direction: 10°N
Pressure: 29.99"   Gusts: NA
Location:  31.0532°N, 88.8084°W
Report Text: KHBG 212153Z AUTO 01007KT 10SM CLR 26/12 A2999 RMK AO2 SLP154 T02610122
Loading
Personal Weather Stations






























Interactive Weather Map
Tropical Storm Tracking
New forecast layout! Learn more

10-Day Weather Forecast

Advertisements
Track Severe Weather on mobile